TimeCEST,TemperatureF,Dew PointF,Humidity,Sea Level PressureIn,VisibilityMPH,Wind Direction,Wind SpeedMPH,Gust SpeedMPH,PrecipitationIn,Events,Conditions,WindDirDegrees,DateUTC
12:24 AM,39.2,37.4,93,29.98,-9999.0,ENE,2.3,-,N/A,,Clear,70,2012-10-08 22:24:00
1:00 AM,39.2,37.4,93,29.98,-9999.0,ENE,3.5,-,N/A,,Clear,70,2012-10-08 23:00:00
3:00 AM,39.2,37.4,93,29.92,-9999.0,ENE,3.5,-,N/A,,Clear,70,2012-10-09 01:00:00
4:00 AM,35.6,33.8,93,29.89,-9999.0,ENE,3.5,-,N/A,,Clear,60,2012-10-09 02:00:00
5:00 AM,33.8,33.8,100,29.86,-9999.0,Calm,Calm,-,N/A,,Clear,0,2012-10-09 03:00:00
6:00 AM,37.4,37.4,100,29.83,-9999.0,Variable,2.3,-,N/A,,Clear,0,2012-10-09 04:00:00
7:00 AM,37.4,37.4,100,29.83,-9999.0,Variable,2.3,-,N/A,,Clear,0,2012-10-09 05:00:00
9:00 AM,41.0,39.2,93,29.80,-9999.0,Calm,Calm,-,N/A,,Clear,0,2012-10-09 07:00:00
10:00 AM,42.8,39.2,87,29.83,6.2,Variable,1.2,-,N/A,,Mostly Cloudy,0,2012-10-09 08:00:00
11:00 AM,48.2,41.0,76,29.83,6.2,Variable,2.3,-,N/A,,Mostly Cloudy,0,2012-10-09 09:00:00
12:00 PM,50.0,42.8,76,29.83,6.2,Variable,2.3,-,N/A,,Mostly Cloudy,0,2012-10-09 10:00:00
1:00 PM,53.6,42.8,67,29.80,6.2,WNW,11.5,-,N/A,,Mostly Cloudy,290,2012-10-09 11:00:00
2:00 PM,53.6,42.8,67,29.80,6.2,NW,9.2,-,N/A,,Mostly Cloudy,310,2012-10-09 12:00:00
3:00 PM,53.6,42.8,67,29.80,6.2,WNW,8.1,-,N/A,,Mostly Cloudy,300,2012-10-09 13:00:00
4:00 PM,53.6,42.8,67,29.83,6.2,NW,6.9,-,N/A,,Mostly Cloudy,320,2012-10-09 14:00:00
5:00 PM,53.6,41.0,62,29.83,6.2,WNW,6.9,-,N/A,,Scattered Clouds,290,2012-10-09 15:00:00
6:00 PM,53.6,41.0,62,29.86,-9999.0,WNW,4.6,-,N/A,,Clear,290,2012-10-09 16:00:00
7:00 PM,50.0,39.2,66,29.86,-9999.0,NW,6.9,-,N/A,,Clear,310,2012-10-09 17:00:00
8:00 PM,48.2,39.2,71,29.89,-9999.0,NW,5.8,-,N/A,,Clear,310,2012-10-09 18:00:00
9:00 PM,46.4,39.2,76,29.92,-9999.0,West,5.8,-,N/A,,Clear,280,2012-10-09 19:00:00
10:00 PM,42.8,37.4,81,29.95,-9999.0,West,5.8,-,N/A,,Clear,270,2012-10-09 20:00:00
11:00 PM,42.8,37.4,81,29.95,-9999.0,West,5.8,-,N/A,,Clear,280,2012-10-09 21:00:00